KR-0402 weather

Dongsam 1(il)-dong Heliport
Busan (Yeoung-do), Busan Gwang'yeogsi, South Korea

Public forecast

Using degrees Celsius for public forecast. Weather courtesy of forecast.io.

METAR (pilot weather report)

Closest report is Gimhae International Airport, 9.4 nm (17.4 km) NW. Retrieved 2019/07/17 12:00 UTC (33 minutes ago):

RKPK 171200Z 16006KT 9999 FEW030 BKN140 OVC200 25/19 Q1011

TAF (pilot weather forecast)

Closest forecast is Gimhae International Airport, 9.4 nm (17.4 km) NW. Retrieved 2019/07/17 12:00 UTC (33 minutes ago):

TAF RKPK 171100Z 1712/1818 12006KT CAVOK TN23/1718Z TX25/1806Z BECMG 1715/1716 15008KT 4800 -RA BR BKN030 OVC100 BECMG 1718/1719 1600 RA BR BKN010 OVC020